sensor_id;sensor_type;location;lat;lon;timestamp;P1;durP1;ratioP1;P2;durP2;ratioP2
3081;SDS011;1551;51.046;7.010;2022-08-21T00:02:43;7.95;;;7.10;;
3081;SDS011;1551;51.046;7.010;2022-08-21T00:05:40;8.32;;;6.85;;
3081;SDS011;1551;51.046;7.010;2022-08-21T00:08:32;8.10;;;7.30;;
3081;SDS011;1551;51.046;7.010;2022-08-21T00:11:21;8.18;;;6.75;;
3081;SDS011;1551;51.046;7.010;2022-08-21T00:14:10;8.57;;;7.50;;
3081;SDS011;1551;51.046;7.010;2022-08-21T00:17:00;10.73;;;7.90;;
3081;SDS011;1551;51.046;7.010;2022-08-21T00:19:50;13.07;;;7.80;;
3081;SDS011;1551;51.046;7.010;2022-08-21T00:22:39;9.35;;;7.38;;
3081;SDS011;1551;51.046;7.010;2022-08-21T00:25:28;7.13;;;6.43;;
3081;SDS011;1551;51.046;7.010;2022-08-21T00:28:17;8.40;;;7.28;;
3081;SDS011;1551;51.046;7.010;2022-08-21T00:31:06;8.37;;;7.10;;
3081;SDS011;1551;51.046;7.010;2022-08-21T00:33:55;9.90;;;7.60;;
3081;SDS011;1551;51.046;7.010;2022-08-21T00:36:44;8.52;;;6.50;;
3081;SDS011;1551;51.046;7.010;2022-08-21T00:39:33;8.15;;;6.45;;
3081;SDS011;1551;51.046;7.010;2022-08-21T00:42:22;7.63;;;6.75;;
3081;SDS011;1551;51.046;7.010;2022-08-21T00:45:11;8.65;;;6.30;;
3081;SDS011;1551;51.046;7.010;2022-08-21T00:48:01;6.97;;;6.22;;
3081;SDS011;1551;51.046;7.010;2022-08-21T00:50:52;8.23;;;6.30;;
3081;SDS011;1551;51.046;7.010;2022-08-21T00:53:45;8.48;;;6.65;;
3081;SDS011;1551;51.046;7.010;2022-08-21T00:56:34;10.02;;;6.93;;
3081;SDS011;1551;51.046;7.010;2022-08-21T00:59:23;8.03;;;6.33;;
3081;SDS011;1551;51.046;7.010;2022-08-21T01:02:16;8.35;;;6.70;;
3081;SDS011;1551;51.046;7.010;2022-08-21T01:05:08;8.80;;;6.65;;
3081;SDS011;1551;51.046;7.010;2022-08-21T01:07:57;9.93;;;6.60;;
3081;SDS011;1551;51.046;7.010;2022-08-21T01:10:47;8.52;;;7.00;;
3081;SDS011;1551;51.046;7.010;2022-08-21T01:13:37;8.30;;;6.43;;
3081;SDS011;1551;51.046;7.010;2022-08-21T01:16:33;8.67;;;6.60;;
3081;SDS011;1551;51.046;7.010;2022-08-21T01:19:22;7.75;;;6.05;;
3081;SDS011;1551;51.046;7.010;2022-08-21T01:22:11;9.10;;;6.70;;
3081;SDS011;1551;51.046;7.010;2022-08-21T01:25:00;8.40;;;6.85;;
3081;SDS011;1551;51.046;7.010;2022-08-21T01:27:49;8.35;;;6.00;;
3081;SDS011;1551;51.046;7.010;2022-08-21T01:30:40;8.88;;;6.40;;
3081;SDS011;1551;51.046;7.010;2022-08-21T01:33:30;8.18;;;6.35;;
3081;SDS011;1551;51.046;7.010;2022-08-21T01:36:19;8.23;;;6.65;;
3081;SDS011;1551;51.046;7.010;2022-08-21T01:39:08;9.63;;;6.03;;
3081;SDS011;1551;51.046;7.010;2022-08-21T01:41:57;8.38;;;6.93;;
3081;SDS011;1551;51.046;7.010;2022-08-21T01:44:47;9.60;;;6.97;;
3081;SDS011;1551;51.046;7.010;2022-08-21T01:47:36;7.13;;;5.90;;
3081;SDS011;1551;51.046;7.010;2022-08-21T01:50:25;9.48;;;6.72;;
3081;SDS011;1551;51.046;7.010;2022-08-21T01:53:14;8.27;;;6.28;;
3081;SDS011;1551;51.046;7.010;2022-08-21T01:56:05;8.02;;;6.30;;
3081;SDS011;1551;51.046;7.010;2022-08-21T01:58:56;7.40;;;6.70;;
3081;SDS011;1551;51.046;7.010;2022-08-21T02:01:45;8.55;;;6.60;;
3081;SDS011;1551;51.046;7.010;2022-08-21T02:04:34;7.45;;;6.00;;
3081;SDS011;1551;51.046;7.010;2022-08-21T02:07:23;7.90;;;6.50;;
3081;SDS011;1551;51.046;7.010;2022-08-21T02:10:13;9.02;;;6.63;;
3081;SDS011;1551;51.046;7.010;2022-08-21T02:13:04;7.00;;;6.30;;
3081;SDS011;1551;51.046;7.010;2022-08-21T02:15:53;7.53;;;5.80;;
3081;SDS011;1551;51.046;7.010;2022-08-21T02:18:42;8.07;;;6.13;;
3081;SDS011;1551;51.046;7.010;2022-08-21T02:21:31;8.55;;;6.13;;
3081;SDS011;1551;51.046;7.010;2022-08-21T02:24:20;7.43;;;6.40;;
3081;SDS011;1551;51.046;7.010;2022-08-21T02:27:09;6.55;;;5.68;;
3081;SDS011;1551;51.046;7.010;2022-08-21T02:29:58;9.55;;;7.18;;
3081;SDS011;1551;51.046;7.010;2022-08-21T02:32:47;7.70;;;6.23;;
3081;SDS011;1551;51.046;7.010;2022-08-21T02:35:36;8.23;;;6.63;;
3081;SDS011;1551;51.046;7.010;2022-08-21T02:38:28;8.82;;;6.78;;
3081;SDS011;1551;51.046;7.010;2022-08-21T02:41:22;11.90;;;8.80;;
3081;SDS011;1551;51.046;7.010;2022-08-21T02:44:12;9.10;;;7.95;;
3081;SDS011;1551;51.046;7.010;2022-08-21T02:47:00;12.30;;;7.70;;
3081;SDS011;1551;51.046;7.010;2022-08-21T02:49:49;8.63;;;7.60;;
3081;SDS011;1551;51.046;7.010;2022-08-21T02:52:38;8.27;;;7.40;;
3081;SDS011;1551;51.046;7.010;2022-08-21T02:55:29;9.97;;;7.00;;
3081;SDS011;1551;51.046;7.010;2022-08-21T02:58:22;7.80;;;6.18;;
3081;SDS011;1551;51.046;7.010;2022-08-21T03:01:15;8.88;;;7.00;;
3081;SDS011;1551;51.046;7.010;2022-08-21T03:04:04;7.38;;;6.60;;
3081;SDS011;1551;51.046;7.010;2022-08-21T03:06:52;9.32;;;6.45;;
3081;SDS011;1551;51.046;7.010;2022-08-21T03:09:41;10.00;;;6.90;;
3081;SDS011;1551;51.046;7.010;2022-08-21T03:12:30;10.02;;;6.00;;
3081;SDS011;1551;51.046;7.010;2022-08-21T03:15:20;9.43;;;6.43;;
3081;SDS011;1551;51.046;7.010;2022-08-21T03:18:12;10.80;;;7.60;;
3081;SDS011;1551;51.046;7.010;2022-08-21T03:21:02;6.80;;;6.00;;
3081;SDS011;1551;51.046;7.010;2022-08-21T03:23:51;7.60;;;6.20;;
3081;SDS011;1551;51.046;7.010;2022-08-21T03:26:42;9.45;;;6.25;;
3081;SDS011;1551;51.046;7.010;2022-08-21T03:29:31;7.45;;;5.60;;
3081;SDS011;1551;51.046;7.010;2022-08-21T03:32:20;7.60;;;6.13;;
3081;SDS011;1551;51.046;7.010;2022-08-21T03:35:10;6.70;;;5.55;;
3081;SDS011;1551;51.046;7.010;2022-08-21T03:37:59;8.32;;;6.40;;
3081;SDS011;1551;51.046;7.010;2022-08-21T03:40:48;9.30;;;6.50;;
3081;SDS011;1551;51.046;7.010;2022-08-21T03:43:37;7.10;;;6.40;;
3081;SDS011;1551;51.046;7.010;2022-08-21T03:46:26;8.93;;;6.90;;
3081;SDS011;1551;51.046;7.010;2022-08-21T03:49:15;8.82;;;7.00;;
3081;SDS011;1551;51.046;7.010;2022-08-21T03:52:04;7.13;;;6.43;;
3081;SDS011;1551;51.046;7.010;2022-08-21T03:54:53;9.30;;;6.30;;
3081;SDS011;1551;51.046;7.010;2022-08-21T03:57:43;8.50;;;6.10;;
3081;SDS011;1551;51.046;7.010;2022-08-21T04:00:32;8.43;;;6.00;;
3081;SDS011;1551;51.046;7.010;2022-08-21T04:03:22;6.95;;;5.70;;
3081;SDS011;1551;51.046;7.010;2022-08-21T04:06:12;9.48;;;6.13;;
3081;SDS011;1551;51.046;7.010;2022-08-21T04:09:00;8.60;;;6.07;;
3081;SDS011;1551;51.046;7.010;2022-08-21T04:11:50;8.73;;;6.30;;
3081;SDS011;1551;51.046;7.010;2022-08-21T04:14:39;7.97;;;6.47;;
3081;SDS011;1551;51.046;7.010;2022-08-21T04:17:28;7.20;;;6.45;;
3081;SDS011;1551;51.046;7.010;2022-08-21T04:20:17;8.50;;;6.90;;
3081;SDS011;1551;51.046;7.010;2022-08-21T04:23:07;7.93;;;5.45;;
3081;SDS011;1551;51.046;7.010;2022-08-21T04:25:56;9.43;;;6.13;;
3081;SDS011;1551;51.046;7.010;2022-08-21T04:28:46;16.00;;;8.68;;
3081;SDS011;1551;51.046;7.010;2022-08-21T04:31:35;9.52;;;6.60;;
3081;SDS011;1551;51.046;7.010;2022-08-21T04:34:28;13.10;;;7.57;;
3081;SDS011;1551;51.046;7.010;2022-08-21T04:37:17;7.18;;;5.47;;
3081;SDS011;1551;51.046;7.010;2022-08-21T04:40:06;7.88;;;5.40;;
3081;SDS011;1551;51.046;7.010;2022-08-21T04:43:06;9.30;;;6.00;;
3081;SDS011;1551;51.046;7.010;2022-08-21T04:45:57;8.63;;;5.80;;
3081;SDS011;1551;51.046;7.010;2022-08-21T04:48:47;8.10;;;5.80;;
3081;SDS011;1551;51.046;7.010;2022-08-21T04:51:37;9.20;;;5.50;;
3081;SDS011;1551;51.046;7.010;2022-08-21T04:54:27;6.25;;;4.88;;
3081;SDS011;1551;51.046;7.010;2022-08-21T04:57:16;7.28;;;5.43;;
3081;SDS011;1551;51.046;7.010;2022-08-21T05:00:06;6.25;;;5.22;;
3081;SDS011;1551;51.046;7.010;2022-08-21T05:02:55;8.85;;;5.70;;
3081;SDS011;1551;51.046;7.010;2022-08-21T05:05:47;6.03;;;4.15;;
3081;SDS011;1551;51.046;7.010;2022-08-21T05:08:37;5.72;;;5.13;;
3081;SDS011;1551;51.046;7.010;2022-08-21T05:11:29;5.68;;;4.40;;
3081;SDS011;1551;51.046;7.010;2022-08-21T05:14:19;7.75;;;4.43;;
3081;SDS011;1551;51.046;7.010;2022-08-21T05:17:08;4.72;;;3.97;;
3081;SDS011;1551;51.046;7.010;2022-08-21T05:19:57;7.60;;;5.38;;
3081;SDS011;1551;51.046;7.010;2022-08-21T05:22:46;5.97;;;4.80;;
3081;SDS011;1551;51.046;7.010;2022-08-21T05:25:35;5.55;;;4.22;;
3081;SDS011;1551;51.046;7.010;2022-08-21T05:28:25;4.90;;;4.30;;
3081;SDS011;1551;51.046;7.010;2022-08-21T05:31:14;6.88;;;4.45;;
3081;SDS011;1551;51.046;7.010;2022-08-21T05:34:04;6.47;;;5.00;;
3081;SDS011;1551;51.046;7.010;2022-08-21T05:36:53;5.70;;;4.00;;
3081;SDS011;1551;51.046;7.010;2022-08-21T05:39:41;8.70;;;5.37;;
3081;SDS011;1551;51.046;7.010;2022-08-21T05:42:30;7.63;;;5.60;;
3081;SDS011;1551;51.046;7.010;2022-08-21T05:45:19;7.30;;;5.83;;
3081;SDS011;1551;51.046;7.010;2022-08-21T05:48:11;6.32;;;5.30;;
3081;SDS011;1551;51.046;7.010;2022-08-21T05:51:10;7.18;;;5.43;;
3081;SDS011;1551;51.046;7.010;2022-08-21T05:54:01;7.25;;;5.47;;
3081;SDS011;1551;51.046;7.010;2022-08-21T05:56:50;6.75;;;4.90;;
3081;SDS011;1551;51.046;7.010;2022-08-21T05:59:40;6.35;;;4.65;;
3081;SDS011;1551;51.046;7.010;2022-08-21T06:02:29;5.68;;;4.20;;
3081;SDS011;1551;51.046;7.010;2022-08-21T06:05:19;6.43;;;4.90;;
3081;SDS011;1551;51.046;7.010;2022-08-21T06:08:08;4.45;;;3.90;;
3081;SDS011;1551;51.046;7.010;2022-08-21T06:10:58;6.75;;;5.25;;
3081;SDS011;1551;51.046;7.010;2022-08-21T06:13:48;8.93;;;5.77;;
3081;SDS011;1551;51.046;7.010;2022-08-21T06:16:37;10.40;;;6.15;;
3081;SDS011;1551;51.046;7.010;2022-08-21T06:19:26;8.73;;;5.93;;
3081;SDS011;1551;51.046;7.010;2022-08-21T06:22:15;8.45;;;6.68;;
3081;SDS011;1551;51.046;7.010;2022-08-21T06:25:04;8.00;;;6.25;;
3081;SDS011;1551;51.046;7.010;2022-08-21T06:27:59;9.60;;;7.90;;
3081;SDS011;1551;51.046;7.010;2022-08-21T06:30:49;10.95;;;7.65;;
3081;SDS011;1551;51.046;7.010;2022-08-21T06:33:38;7.65;;;6.40;;
3081;SDS011;1551;51.046;7.010;2022-08-21T06:36:27;9.93;;;6.60;;
3081;SDS011;1551;51.046;7.010;2022-08-21T06:39:16;7.50;;;6.18;;
3081;SDS011;1551;51.046;7.010;2022-08-21T06:42:05;6.10;;;5.50;;
3081;SDS011;1551;51.046;7.010;2022-08-21T06:44:56;8.75;;;7.22;;
3081;SDS011;1551;51.046;7.010;2022-08-21T06:47:45;9.35;;;7.07;;
3081;SDS011;1551;51.046;7.010;2022-08-21T06:50:34;12.30;;;7.80;;
3081;SDS011;1551;51.046;7.010;2022-08-21T06:53:24;7.53;;;6.55;;
3081;SDS011;1551;51.046;7.010;2022-08-21T06:56:14;10.57;;;6.78;;
3081;SDS011;1551;51.046;7.010;2022-08-21T06:59:04;7.07;;;5.40;;
3081;SDS011;1551;51.046;7.010;2022-08-21T07:01:54;7.15;;;5.47;;
3081;SDS011;1551;51.046;7.010;2022-08-21T07:04:43;5.38;;;4.30;;
3081;SDS011;1551;51.046;7.010;2022-08-21T07:07:33;7.00;;;4.78;;
3081;SDS011;1551;51.046;7.010;2022-08-21T07:10:22;6.22;;;5.07;;
3081;SDS011;1551;51.046;7.010;2022-08-21T07:13:11;8.63;;;6.13;;
3081;SDS011;1551;51.046;7.010;2022-08-21T07:16:01;9.93;;;6.40;;
3081;SDS011;1551;51.046;7.010;2022-08-21T07:18:50;5.97;;;4.72;;
3081;SDS011;1551;51.046;7.010;2022-08-21T07:21:39;7.72;;;5.75;;
3081;SDS011;1551;51.046;7.010;2022-08-21T07:24:28;7.25;;;5.95;;
3081;SDS011;1551;51.046;7.010;2022-08-21T07:27:18;6.00;;;5.40;;
3081;SDS011;1551;51.046;7.010;2022-08-21T07:30:07;9.53;;;6.40;;
3081;SDS011;1551;51.046;7.010;2022-08-21T07:32:56;7.47;;;5.07;;
3081;SDS011;1551;51.046;7.010;2022-08-21T07:35:46;6.47;;;4.40;;
3081;SDS011;1551;51.046;7.010;2022-08-21T07:38:35;6.43;;;4.80;;
3081;SDS011;1551;51.046;7.010;2022-08-21T07:41:26;6.72;;;6.03;;
3081;SDS011;1551;51.046;7.010;2022-08-21T07:44:17;7.13;;;5.55;;
3081;SDS011;1551;51.046;7.010;2022-08-21T07:47:06;6.10;;;4.80;;
3081;SDS011;1551;51.046;7.010;2022-08-21T07:49:55;7.18;;;5.10;;
3081;SDS011;1551;51.046;7.010;2022-08-21T07:52:44;7.80;;;6.40;;
3081;SDS011;1551;51.046;7.010;2022-08-21T07:55:34;7.97;;;5.75;;
3081;SDS011;1551;51.046;7.010;2022-08-21T07:58:23;9.03;;;5.23;;
3081;SDS011;1551;51.046;7.010;2022-08-21T08:01:12;5.95;;;3.58;;
3081;SDS011;1551;51.046;7.010;2022-08-21T08:04:01;4.22;;;3.33;;
3081;SDS011;1551;51.046;7.010;2022-08-21T08:06:50;5.90;;;3.78;;
3081;SDS011;1551;51.046;7.010;2022-08-21T08:09:38;7.32;;;4.10;;
3081;SDS011;1551;51.046;7.010;2022-08-21T08:12:27;4.97;;;4.32;;
3081;SDS011;1551;51.046;7.010;2022-08-21T08:15:19;7.32;;;3.88;;
3081;SDS011;1551;51.046;7.010;2022-08-21T08:18:11;4.53;;;3.58;;
3081;SDS011;1551;51.046;7.010;2022-08-21T08:21:02;8.00;;;4.03;;
3081;SDS011;1551;51.046;7.010;2022-08-21T08:23:52;6.18;;;3.50;;
3081;SDS011;1551;51.046;7.010;2022-08-21T08:26:41;4.55;;;2.53;;
3081;SDS011;1551;51.046;7.010;2022-08-21T08:29:30;5.10;;;2.78;;
3081;SDS011;1551;51.046;7.010;2022-08-21T08:32:19;4.70;;;2.70;;
3081;SDS011;1551;51.046;7.010;2022-08-21T08:35:09;8.60;;;2.95;;
3081;SDS011;1551;51.046;7.010;2022-08-21T08:37:58;7.40;;;2.60;;
3081;SDS011;1551;51.046;7.010;2022-08-21T08:40:50;3.67;;;2.50;;
3081;SDS011;1551;51.046;7.010;2022-08-21T08:43:52;6.40;;;2.60;;
3081;SDS011;1551;51.046;7.010;2022-08-21T08:46:44;7.00;;;2.80;;
3081;SDS011;1551;51.046;7.010;2022-08-21T08:49:37;5.22;;;1.92;;
3081;SDS011;1551;51.046;7.010;2022-08-21T08:52:35;5.93;;;2.53;;
3081;SDS011;1551;51.046;7.010;2022-08-21T08:58:37;6.20;;;2.50;;
3081;SDS011;1551;51.046;7.010;2022-08-21T09:01:28;4.15;;;1.80;;
3081;SDS011;1551;51.046;7.010;2022-08-21T09:04:19;4.65;;;2.35;;
3081;SDS011;1551;51.046;7.010;2022-08-21T09:07:20;5.72;;;2.40;;
3081;SDS011;1551;51.046;7.010;2022-08-21T09:10:22;5.97;;;2.50;;
3081;SDS011;1551;51.046;7.010;2022-08-21T09:19:54;8.00;;;2.45;;
3081;SDS011;1551;51.046;7.010;2022-08-21T09:26:12;4.75;;;1.65;;
3081;SDS011;1551;51.046;7.010;2022-08-21T09:29:03;4.13;;;2.25;;
3081;SDS011;1551;51.046;7.010;2022-08-21T09:31:56;4.43;;;1.70;;
3081;SDS011;1551;51.046;7.010;2022-08-21T09:34:59;4.63;;;2.00;;
3081;SDS011;1551;51.046;7.010;2022-08-21T09:38:02;4.15;;;1.58;;
3081;SDS011;1551;51.046;7.010;2022-08-21T09:40:57;4.88;;;1.80;;
3081;SDS011;1551;51.046;7.010;2022-08-21T09:43:52;3.50;;;2.05;;
3081;SDS011;1551;51.046;7.010;2022-08-21T09:46:49;3.53;;;1.42;;
3081;SDS011;1551;51.046;7.010;2022-08-21T09:49:41;4.28;;;2.10;;
3081;SDS011;1551;51.046;7.010;2022-08-21T09:52:32;4.57;;;1.90;;
3081;SDS011;1551;51.046;7.010;2022-08-21T09:59:13;5.22;;;1.73;;
3081;SDS011;1551;51.046;7.010;2022-08-21T10:05:18;4.60;;;1.60;;
3081;SDS011;1551;51.046;7.010;2022-08-21T10:08:20;5.00;;;2.00;;
3081;SDS011;1551;51.046;7.010;2022-08-21T10:11:12;5.18;;;1.60;;
3081;SDS011;1551;51.046;7.010;2022-08-21T10:14:07;4.53;;;1.57;;
3081;SDS011;1551;51.046;7.010;2022-08-21T10:17:04;5.45;;;2.38;;
3081;SDS011;1551;51.046;7.010;2022-08-21T10:20:14;8.85;;;2.78;;
3081;SDS011;1551;51.046;7.010;2022-08-21T10:23:18;3.90;;;1.77;;
3081;SDS011;1551;51.046;7.010;2022-08-21T10:35:33;3.40;;;1.33;;
3081;SDS011;1551;51.046;7.010;2022-08-21T10:38:36;3.80;;;1.60;;
3081;SDS011;1551;51.046;7.010;2022-08-21T10:50:38;6.78;;;2.40;;
3081;SDS011;1551;51.046;7.010;2022-08-21T10:53:41;6.30;;;2.75;;
3081;SDS011;1551;51.046;7.010;2022-08-21T10:56:40;3.88;;;1.90;;
3081;SDS011;1551;51.046;7.010;2022-08-21T10:59:42;7.68;;;2.30;;
3081;SDS011;1551;51.046;7.010;2022-08-21T11:02:51;5.45;;;1.70;;
3081;SDS011;1551;51.046;7.010;2022-08-21T11:06:02;4.85;;;1.58;;
3081;SDS011;1551;51.046;7.010;2022-08-21T11:09:01;3.50;;;1.40;;
3081;SDS011;1551;51.046;7.010;2022-08-21T11:14:49;3.07;;;1.40;;
3081;SDS011;1551;51.046;7.010;2022-08-21T11:17:44;3.60;;;1.40;;
3081;SDS011;1551;51.046;7.010;2022-08-21T11:29:35;5.68;;;1.58;;
3081;SDS011;1551;51.046;7.010;2022-08-21T11:39:06;3.80;;;1.30;;
3081;SDS011;1551;51.046;7.010;2022-08-21T11:42:33;5.00;;;1.30;;
3081;SDS011;1551;51.046;7.010;2022-08-21T11:45:37;2.88;;;1.50;;
3081;SDS011;1551;51.046;7.010;2022-08-21T11:51:39;4.15;;;1.30;;
3081;SDS011;1551;51.046;7.010;2022-08-21T11:54:38;2.83;;;1.20;;
3081;SDS011;1551;51.046;7.010;2022-08-21T11:57:57;3.33;;;1.37;;
3081;SDS011;1551;51.046;7.010;2022-08-21T12:00:58;2.40;;;1.00;;
3081;SDS011;1551;51.046;7.010;2022-08-21T12:03:57;4.43;;;1.30;;
3081;SDS011;1551;51.046;7.010;2022-08-21T12:06:51;3.15;;;1.33;;
3081;SDS011;1551;51.046;7.010;2022-08-21T12:09:40;2.80;;;1.40;;
3081;SDS011;1551;51.046;7.010;2022-08-21T12:12:42;3.20;;;1.50;;
3081;SDS011;1551;51.046;7.010;2022-08-21T12:15:33;4.03;;;1.30;;
3081;SDS011;1551;51.046;7.010;2022-08-21T12:18:29;3.80;;;1.40;;
3081;SDS011;1551;51.046;7.010;2022-08-21T12:21:24;3.83;;;1.55;;
3081;SDS011;1551;51.046;7.010;2022-08-21T12:24:17;3.40;;;1.40;;
3081;SDS011;1551;51.046;7.010;2022-08-21T12:27:17;2.97;;;1.55;;
3081;SDS011;1551;51.046;7.010;2022-08-21T12:33:28;4.00;;;1.48;;
3081;SDS011;1551;51.046;7.010;2022-08-21T12:36:20;3.42;;;1.30;;
3081;SDS011;1551;51.046;7.010;2022-08-21T12:39:15;3.72;;;1.60;;
3081;SDS011;1551;51.046;7.010;2022-08-21T12:42:18;2.30;;;1.30;;
3081;SDS011;1551;51.046;7.010;2022-08-21T12:45:23;4.75;;;1.70;;
3081;SDS011;1551;51.046;7.010;2022-08-21T12:48:31;3.80;;;2.20;;
3081;SDS011;1551;51.046;7.010;2022-08-21T12:51:25;3.42;;;1.70;;
3081;SDS011;1551;51.046;7.010;2022-08-21T12:54:29;3.38;;;1.88;;
3081;SDS011;1551;51.046;7.010;2022-08-21T13:00:14;2.33;;;1.20;;
3081;SDS011;1551;51.046;7.010;2022-08-21T13:03:11;3.95;;;1.58;;
3081;SDS011;1551;51.046;7.010;2022-08-21T13:06:04;3.50;;;1.50;;
3081;SDS011;1551;51.046;7.010;2022-08-21T13:08:56;2.70;;;1.10;;
3081;SDS011;1551;51.046;7.010;2022-08-21T13:11:47;3.65;;;1.20;;
3081;SDS011;1551;51.046;7.010;2022-08-21T13:14:41;3.15;;;1.60;;
3081;SDS011;1551;51.046;7.010;2022-08-21T13:17:34;3.80;;;1.40;;
3081;SDS011;1551;51.046;7.010;2022-08-21T13:20:27;4.37;;;1.90;;
3081;SDS011;1551;51.046;7.010;2022-08-21T13:23:20;3.50;;;1.60;;
3081;SDS011;1551;51.046;7.010;2022-08-21T13:26:17;2.63;;;1.40;;
3081;SDS011;1551;51.046;7.010;2022-08-21T13:29:09;2.10;;;1.20;;
3081;SDS011;1551;51.046;7.010;2022-08-21T13:32:03;2.38;;;0.93;;
3081;SDS011;1551;51.046;7.010;2022-08-21T13:34:55;3.88;;;1.30;;
3081;SDS011;1551;51.046;7.010;2022-08-21T13:37:44;2.97;;;1.38;;
3081;SDS011;1551;51.046;7.010;2022-08-21T13:40:49;4.00;;;1.40;;
3081;SDS011;1551;51.046;7.010;2022-08-21T13:43:44;2.53;;;1.20;;
3081;SDS011;1551;51.046;7.010;2022-08-21T13:46:35;5.95;;;1.40;;
3081;SDS011;1551;51.046;7.010;2022-08-21T13:49:33;2.97;;;1.50;;
3081;SDS011;1551;51.046;7.010;2022-08-21T13:52:26;3.15;;;1.50;;
3081;SDS011;1551;51.046;7.010;2022-08-21T13:55:16;3.25;;;1.50;;
3081;SDS011;1551;51.046;7.010;2022-08-21T13:58:05;3.80;;;1.30;;
3081;SDS011;1551;51.046;7.010;2022-08-21T14:00:55;3.40;;;1.40;;
3081;SDS011;1551;51.046;7.010;2022-08-21T14:03:47;4.55;;;1.75;;
3081;SDS011;1551;51.046;7.010;2022-08-21T14:06:38;3.85;;;1.42;;
3081;SDS011;1551;51.046;7.010;2022-08-21T14:09:30;4.57;;;1.50;;
3081;SDS011;1551;51.046;7.010;2022-08-21T14:12:29;4.70;;;1.75;;
3081;SDS011;1551;51.046;7.010;2022-08-21T14:15:30;2.33;;;1.30;;
3081;SDS011;1551;51.046;7.010;2022-08-21T14:18:20;3.20;;;1.60;;
3081;SDS011;1551;51.046;7.010;2022-08-21T14:21:09;4.07;;;2.55;;
3081;SDS011;1551;51.046;7.010;2022-08-21T14:24:03;3.55;;;1.42;;
3081;SDS011;1551;51.046;7.010;2022-08-21T14:26:56;4.43;;;1.80;;
3081;SDS011;1551;51.046;7.010;2022-08-21T14:29:50;3.60;;;1.53;;
3081;SDS011;1551;51.046;7.010;2022-08-21T14:32:47;3.00;;;1.33;;
3081;SDS011;1551;51.046;7.010;2022-08-21T14:35:37;3.20;;;1.33;;
3081;SDS011;1551;51.046;7.010;2022-08-21T14:38:26;3.20;;;1.45;;
3081;SDS011;1551;51.046;7.010;2022-08-21T14:41:23;2.22;;;1.60;;
3081;SDS011;1551;51.046;7.010;2022-08-21T14:44:18;3.88;;;1.90;;
3081;SDS011;1551;51.046;7.010;2022-08-21T14:47:08;2.85;;;1.48;;
3081;SDS011;1551;51.046;7.010;2022-08-21T14:49:58;4.60;;;2.00;;
3081;SDS011;1551;51.046;7.010;2022-08-21T14:52:47;4.75;;;1.60;;
3081;SDS011;1551;51.046;7.010;2022-08-21T14:55:37;3.78;;;1.25;;
3081;SDS011;1551;51.046;7.010;2022-08-21T14:58:47;4.82;;;2.00;;
3081;SDS011;1551;51.046;7.010;2022-08-21T15:01:38;2.80;;;1.50;;
3081;SDS011;1551;51.046;7.010;2022-08-21T15:04:28;3.40;;;1.57;;
3081;SDS011;1551;51.046;7.010;2022-08-21T15:07:16;3.28;;;1.90;;
3081;SDS011;1551;51.046;7.010;2022-08-21T15:10:06;6.47;;;2.25;;
3081;SDS011;1551;51.046;7.010;2022-08-21T15:12:58;3.08;;;2.15;;
3081;SDS011;1551;51.046;7.010;2022-08-21T15:15:47;3.50;;;1.58;;
3081;SDS011;1551;51.046;7.010;2022-08-21T15:18:38;3.75;;;2.47;;
3081;SDS011;1551;51.046;7.010;2022-08-21T15:21:28;3.70;;;2.03;;
3081;SDS011;1551;51.046;7.010;2022-08-21T15:24:17;2.45;;;1.08;;
3081;SDS011;1551;51.046;7.010;2022-08-21T15:27:06;4.65;;;1.60;;
3081;SDS011;1551;51.046;7.010;2022-08-21T15:29:57;4.97;;;2.00;;
3081;SDS011;1551;51.046;7.010;2022-08-21T15:32:46;2.90;;;1.50;;
3081;SDS011;1551;51.046;7.010;2022-08-21T15:35:35;3.88;;;1.95;;
3081;SDS011;1551;51.046;7.010;2022-08-21T15:38:25;2.60;;;1.50;;
3081;SDS011;1551;51.046;7.010;2022-08-21T15:41:14;3.00;;;1.63;;
3081;SDS011;1551;51.046;7.010;2022-08-21T15:44:04;3.13;;;1.70;;
3081;SDS011;1551;51.046;7.010;2022-08-21T15:46:53;4.38;;;1.70;;
3081;SDS011;1551;51.046;7.010;2022-08-21T15:49:43;2.50;;;1.50;;
3081;SDS011;1551;51.046;7.010;2022-08-21T15:52:34;2.90;;;1.50;;
3081;SDS011;1551;51.046;7.010;2022-08-21T15:55:23;2.60;;;1.20;;
3081;SDS011;1551;51.046;7.010;2022-08-21T15:58:14;5.88;;;4.25;;
3081;SDS011;1551;51.046;7.010;2022-08-21T16:01:04;1.90;;;1.25;;
3081;SDS011;1551;51.046;7.010;2022-08-21T16:03:53;3.40;;;1.58;;
3081;SDS011;1551;51.046;7.010;2022-08-21T16:06:43;2.50;;;1.30;;
3081;SDS011;1551;51.046;7.010;2022-08-21T16:09:32;6.13;;;2.47;;
3081;SDS011;1551;51.046;7.010;2022-08-21T16:12:25;2.28;;;1.30;;
3081;SDS011;1551;51.046;7.010;2022-08-21T16:15:19;2.88;;;1.30;;
3081;SDS011;1551;51.046;7.010;2022-08-21T16:18:08;3.00;;;1.30;;
3081;SDS011;1551;51.046;7.010;2022-08-21T16:20:58;2.45;;;1.00;;
3081;SDS011;1551;51.046;7.010;2022-08-21T16:23:47;4.37;;;1.70;;
3081;SDS011;1551;51.046;7.010;2022-08-21T16:26:37;2.30;;;1.10;;
3081;SDS011;1551;51.046;7.010;2022-08-21T16:29:27;2.87;;;1.30;;
3081;SDS011;1551;51.046;7.010;2022-08-21T16:32:21;3.30;;;1.40;;
3081;SDS011;1551;51.046;7.010;2022-08-21T16:35:11;3.10;;;1.40;;
3081;SDS011;1551;51.046;7.010;2022-08-21T16:38:03;3.28;;;1.65;;
3081;SDS011;1551;51.046;7.010;2022-08-21T16:40:52;3.78;;;2.10;;
3081;SDS011;1551;51.046;7.010;2022-08-21T16:43:41;3.83;;;2.22;;
3081;SDS011;1551;51.046;7.010;2022-08-21T16:46:33;3.25;;;1.55;;
3081;SDS011;1551;51.046;7.010;2022-08-21T16:49:24;3.75;;;1.60;;
3081;SDS011;1551;51.046;7.010;2022-08-21T16:52:13;2.65;;;1.27;;
3081;SDS011;1551;51.046;7.010;2022-08-21T16:55:04;2.97;;;1.52;;
3081;SDS011;1551;51.046;7.010;2022-08-21T16:57:53;3.10;;;1.30;;
3081;SDS011;1551;51.046;7.010;2022-08-21T17:00:44;4.05;;;1.50;;
3081;SDS011;1551;51.046;7.010;2022-08-21T17:03:37;3.65;;;1.40;;
3081;SDS011;1551;51.046;7.010;2022-08-21T17:06:29;2.27;;;1.40;;
3081;SDS011;1551;51.046;7.010;2022-08-21T17:09:18;5.10;;;2.47;;
3081;SDS011;1551;51.046;7.010;2022-08-21T17:12:07;2.90;;;1.70;;
3081;SDS011;1551;51.046;7.010;2022-08-21T17:14:57;4.75;;;1.80;;
3081;SDS011;1551;51.046;7.010;2022-08-21T17:17:53;3.75;;;1.45;;
3081;SDS011;1551;51.046;7.010;2022-08-21T17:20:44;2.78;;;1.50;;
3081;SDS011;1551;51.046;7.010;2022-08-21T17:23:35;3.08;;;1.30;;
3081;SDS011;1551;51.046;7.010;2022-08-21T17:26:24;2.90;;;1.38;;
3081;SDS011;1551;51.046;7.010;2022-08-21T17:29:13;2.65;;;1.30;;
3081;SDS011;1551;51.046;7.010;2022-08-21T17:32:04;2.90;;;1.70;;
3081;SDS011;1551;51.046;7.010;2022-08-21T17:34:57;4.28;;;2.50;;
3081;SDS011;1551;51.046;7.010;2022-08-21T17:37:46;2.15;;;1.17;;
3081;SDS011;1551;51.046;7.010;2022-08-21T17:40:35;2.35;;;1.40;;
3081;SDS011;1551;51.046;7.010;2022-08-21T17:43:25;3.28;;;1.80;;
3081;SDS011;1551;51.046;7.010;2022-08-21T17:46:19;2.30;;;1.50;;
3081;SDS011;1551;51.046;7.010;2022-08-21T17:49:10;2.80;;;1.70;;
3081;SDS011;1551;51.046;7.010;2022-08-21T17:51:59;2.20;;;1.30;;
3081;SDS011;1551;51.046;7.010;2022-08-21T17:54:48;3.30;;;1.27;;
3081;SDS011;1551;51.046;7.010;2022-08-21T17:57:37;3.10;;;2.05;;
3081;SDS011;1551;51.046;7.010;2022-08-21T18:00:29;4.82;;;1.50;;
3081;SDS011;1551;51.046;7.010;2022-08-21T18:03:20;2.78;;;1.50;;
3081;SDS011;1551;51.046;7.010;2022-08-21T18:06:10;3.90;;;1.20;;
3081;SDS011;1551;51.046;7.010;2022-08-21T18:08:59;3.35;;;1.17;;
3081;SDS011;1551;51.046;7.010;2022-08-21T18:11:48;2.53;;;1.10;;
3081;SDS011;1551;51.046;7.010;2022-08-21T18:14:37;3.47;;;1.10;;
3081;SDS011;1551;51.046;7.010;2022-08-21T18:17:27;2.70;;;1.10;;
3081;SDS011;1551;51.046;7.010;2022-08-21T18:20:19;2.40;;;1.20;;
3081;SDS011;1551;51.046;7.010;2022-08-21T18:23:09;3.00;;;1.30;;
3081;SDS011;1551;51.046;7.010;2022-08-21T18:25:58;2.70;;;1.08;;
3081;SDS011;1551;51.046;7.010;2022-08-21T18:28:48;3.70;;;1.40;;
3081;SDS011;1551;51.046;7.010;2022-08-21T18:31:37;3.20;;;1.30;;
3081;SDS011;1551;51.046;7.010;2022-08-21T18:34:29;2.60;;;1.40;;
3081;SDS011;1551;51.046;7.010;2022-08-21T18:37:22;2.33;;;1.20;;
3081;SDS011;1551;51.046;7.010;2022-08-21T18:40:11;5.10;;;1.50;;
3081;SDS011;1551;51.046;7.010;2022-08-21T18:43:00;3.60;;;1.27;;
3081;SDS011;1551;51.046;7.010;2022-08-21T18:45:51;2.35;;;1.20;;
3081;SDS011;1551;51.046;7.010;2022-08-21T18:48:40;2.92;;;1.50;;
3081;SDS011;1551;51.046;7.010;2022-08-21T18:51:30;4.50;;;2.70;;
3081;SDS011;1551;51.046;7.010;2022-08-21T18:54:20;3.97;;;2.75;;